sensor_id;sensor_type;location;lat;lon;timestamp;pressure;altitude;pressure_sealevel;temperature;humidity
80851;BME280;70268;50.292;6.666;2023-06-19T00:02:09;95943.25;;;25.42;48.70
80851;BME280;70268;50.292;6.666;2023-06-19T00:04:37;95947.28;;;25.45;47.86
80851;BME280;70268;50.292;6.666;2023-06-19T00:07:07;95950.72;;;25.45;48.67
80851;BME280;70268;50.292;6.666;2023-06-19T00:09:36;95943.38;;;25.47;49.07
80851;BME280;70268;50.292;6.666;2023-06-19T00:12:05;95938.31;;;25.46;48.96
80851;BME280;70268;50.292;6.666;2023-06-19T00:14:34;95943.63;;;25.46;49.20
80851;BME280;70268;50.292;6.666;2023-06-19T00:17:04;95944.97;;;25.48;48.75
80851;BME280;70268;50.292;6.666;2023-06-19T00:19:33;95947.06;;;25.46;48.83
80851;BME280;70268;50.292;6.666;2023-06-19T00:22:04;95952.91;;;25.48;48.62
80851;BME280;70268;50.292;6.666;2023-06-19T00:24:34;95963.16;;;25.45;49.12
80851;BME280;70268;50.292;6.666;2023-06-19T00:27:03;95960.28;;;25.46;48.82
80851;BME280;70268;50.292;6.666;2023-06-19T00:29:32;95969.84;;;25.47;48.79
80851;BME280;70268;50.292;6.666;2023-06-19T00:32:01;95970.06;;;25.46;48.53
80851;BME280;70268;50.292;6.666;2023-06-19T00:34:30;95959.50;;;25.46;48.76
80851;BME280;70268;50.292;6.666;2023-06-19T00:36:59;95963.72;;;25.47;48.99
80851;BME280;70268;50.292;6.666;2023-06-19T00:39:27;95965.81;;;25.45;48.69
80851;BME280;70268;50.292;6.666;2023-06-19T00:41:58;95966.97;;;25.49;48.86
80851;BME280;70268;50.292;6.666;2023-06-19T00:44:27;95979.38;;;25.48;48.73
80851;BME280;70268;50.292;6.666;2023-06-19T00:46:57;95980.50;;;25.40;48.92
80851;BME280;70268;50.292;6.666;2023-06-19T00:49:28;95976.41;;;25.45;48.90
80851;BME280;70268;50.292;6.666;2023-06-19T00:51:58;95979.84;;;25.45;48.86
80851;BME280;70268;50.292;6.666;2023-06-19T00:54:27;95971.69;;;25.47;48.99
80851;BME280;70268;50.292;6.666;2023-06-19T00:56:55;95972.13;;;25.44;49.19
80851;BME280;70268;50.292;6.666;2023-06-19T00:59:26;95969.13;;;25.40;49.09
80851;BME280;70268;50.292;6.666;2023-06-19T01:01:56;95968.09;;;25.41;49.16
80851;BME280;70268;50.292;6.666;2023-06-19T01:04:24;95959.34;;;25.40;49.15
80851;BME280;70268;50.292;6.666;2023-06-19T01:06:58;95962.22;;;25.39;49.02
80851;BME280;70268;50.292;6.666;2023-06-19T01:09:33;95963.84;;;25.40;49.20
80851;BME280;70268;50.292;6.666;2023-06-19T01:12:06;95954.06;;;25.40;49.26
80851;BME280;70268;50.292;6.666;2023-06-19T01:14:46;95957.53;;;25.41;49.03
80851;BME280;70268;50.292;6.666;2023-06-19T01:17:18;95963.03;;;25.39;49.13
80851;BME280;70268;50.292;6.666;2023-06-19T01:19:47;95972.00;;;25.38;49.24
80851;BME280;70268;50.292;6.666;2023-06-19T01:22:28;95969.59;;;25.37;49.03
80851;BME280;70268;50.292;6.666;2023-06-19T01:24:59;95965.31;;;25.36;49.49
80851;BME280;70268;50.292;6.666;2023-06-19T01:27:28;95972.91;;;25.32;49.35
80851;BME280;70268;50.292;6.666;2023-06-19T01:30:02;95968.63;;;25.31;49.37
80851;BME280;70268;50.292;6.666;2023-06-19T01:32:36;95969.69;;;25.30;49.64
80851;BME280;70268;50.292;6.666;2023-06-19T01:35:09;95969.47;;;25.32;49.46
80851;BME280;70268;50.292;6.666;2023-06-19T01:37:41;95966.09;;;25.25;49.19
80851;BME280;70268;50.292;6.666;2023-06-19T01:40:11;95967.25;;;25.29;49.61
80851;BME280;70268;50.292;6.666;2023-06-19T01:42:41;95975.84;;;25.24;49.40
80851;BME280;70268;50.292;6.666;2023-06-19T01:45:10;95966.59;;;25.33;49.43
80851;BME280;70268;50.292;6.666;2023-06-19T01:47:39;95972.75;;;25.27;49.46
80851;BME280;70268;50.292;6.666;2023-06-19T01:50:10;95980.69;;;25.27;49.40
80851;BME280;70268;50.292;6.666;2023-06-19T01:52:40;95984.50;;;25.31;49.66
80851;BME280;70268;50.292;6.666;2023-06-19T01:55:09;95983.78;;;25.24;49.43
80851;BME280;70268;50.292;6.666;2023-06-19T01:57:38;95992.03;;;25.16;49.10
80851;BME280;70268;50.292;6.666;2023-06-19T02:00:07;95991.47;;;25.14;49.81
80851;BME280;70268;50.292;6.666;2023-06-19T02:02:40;96000.50;;;25.06;49.84
80851;BME280;70268;50.292;6.666;2023-06-19T02:05:08;96006.06;;;24.98;50.54
80851;BME280;70268;50.292;6.666;2023-06-19T02:07:37;96014.31;;;25.08;50.11
80851;BME280;70268;50.292;6.666;2023-06-19T02:10:08;96011.00;;;25.13;50.22
80851;BME280;70268;50.292;6.666;2023-06-19T02:12:37;96010.31;;;25.17;49.64
80851;BME280;70268;50.292;6.666;2023-06-19T02:15:06;96015.53;;;25.05;50.26
80851;BME280;70268;50.292;6.666;2023-06-19T02:17:35;96005.31;;;24.91;50.63
80851;BME280;70268;50.292;6.666;2023-06-19T02:20:05;96016.72;;;24.91;50.58
80851;BME280;70268;50.292;6.666;2023-06-19T02:22:36;96016.81;;;25.03;50.59
80851;BME280;70268;50.292;6.666;2023-06-19T02:25:05;96021.38;;;24.96;50.47
80851;BME280;70268;50.292;6.666;2023-06-19T02:27:35;96026.00;;;25.00;50.17
80851;BME280;70268;50.292;6.666;2023-06-19T02:30:05;96022.56;;;24.93;50.72
80851;BME280;70268;50.292;6.666;2023-06-19T02:32:34;96013.44;;;24.96;50.22
80851;BME280;70268;50.292;6.666;2023-06-19T02:35:06;96020.16;;;24.92;50.29
80851;BME280;70268;50.292;6.666;2023-06-19T02:37:35;96026.22;;;24.74;50.65
80851;BME280;70268;50.292;6.666;2023-06-19T02:40:08;96017.16;;;24.88;50.72
80851;BME280;70268;50.292;6.666;2023-06-19T02:42:39;96032.19;;;24.69;51.16
80851;BME280;70268;50.292;6.666;2023-06-19T02:45:08;96027.00;;;24.56;51.60
80851;BME280;70268;50.292;6.666;2023-06-19T02:47:36;96032.63;;;24.66;51.06
80851;BME280;70268;50.292;6.666;2023-06-19T02:50:06;96038.56;;;24.61;50.98
80851;BME280;70268;50.292;6.666;2023-06-19T02:52:36;96035.97;;;24.55;51.42
80851;BME280;70268;50.292;6.666;2023-06-19T02:55:05;96032.69;;;24.59;51.36
80851;BME280;70268;50.292;6.666;2023-06-19T02:57:34;96034.22;;;24.48;51.79
80851;BME280;70268;50.292;6.666;2023-06-19T03:00:05;96034.59;;;24.70;51.21
80851;BME280;70268;50.292;6.666;2023-06-19T03:02:36;96043.69;;;24.56;51.43
80851;BME280;70268;50.292;6.666;2023-06-19T03:05:09;96040.63;;;24.78;51.01
80851;BME280;70268;50.292;6.666;2023-06-19T03:07:38;96051.34;;;24.64;51.18
80851;BME280;70268;50.292;6.666;2023-06-19T03:10:07;96055.00;;;24.63;51.44
80851;BME280;70268;50.292;6.666;2023-06-19T03:12:35;96050.25;;;24.72;50.97
80851;BME280;70268;50.292;6.666;2023-06-19T03:15:06;96057.38;;;24.72;51.09
80851;BME280;70268;50.292;6.666;2023-06-19T03:17:38;96070.59;;;24.72;50.91
80851;BME280;70268;50.292;6.666;2023-06-19T03:20:10;96078.09;;;24.75;51.25
80851;BME280;70268;50.292;6.666;2023-06-19T03:22:47;96087.31;;;24.65;51.16
80851;BME280;70268;50.292;6.666;2023-06-19T03:25:16;96081.59;;;24.68;51.43
80851;BME280;70268;50.292;6.666;2023-06-19T03:27:48;96083.59;;;24.73;51.27
80851;BME280;70268;50.292;6.666;2023-06-19T03:30:17;96090.28;;;24.76;50.93
80851;BME280;70268;50.292;6.666;2023-06-19T03:32:50;96091.53;;;24.73;51.13
80851;BME280;70268;50.292;6.666;2023-06-19T03:35:45;96101.41;;;24.59;51.22
80851;BME280;70268;50.292;6.666;2023-06-19T03:38:29;96100.44;;;24.54;51.63
80851;BME280;70268;50.292;6.666;2023-06-19T03:40:59;96100.09;;;24.11;52.54
80851;BME280;70268;50.292;6.666;2023-06-19T03:43:28;96112.72;;;24.09;52.80
80851;BME280;70268;50.292;6.666;2023-06-19T03:45:58;96116.09;;;24.23;52.52
80851;BME280;70268;50.292;6.666;2023-06-19T03:48:27;96115.38;;;24.41;52.29
80851;BME280;70268;50.292;6.666;2023-06-19T03:50:55;96115.59;;;24.40;51.96
80851;BME280;70268;50.292;6.666;2023-06-19T03:53:24;96104.69;;;24.29;52.04
80851;BME280;70268;50.292;6.666;2023-06-19T03:55:54;96108.53;;;24.27;51.66
80851;BME280;70268;50.292;6.666;2023-06-19T03:58:23;96101.78;;;23.99;52.75
80851;BME280;70268;50.292;6.666;2023-06-19T04:00:52;96101.16;;;24.04;52.51
80851;BME280;70268;50.292;6.666;2023-06-19T04:03:22;96109.22;;;24.15;52.24
80851;BME280;70268;50.292;6.666;2023-06-19T04:05:50;96110.84;;;24.16;52.14
80851;BME280;70268;50.292;6.666;2023-06-19T04:08:19;96109.22;;;24.15;52.24
80851;BME280;70268;50.292;6.666;2023-06-19T04:10:47;96119.41;;;24.12;52.54
80851;BME280;70268;50.292;6.666;2023-06-19T04:13:16;96122.25;;;24.10;51.83
80851;BME280;70268;50.292;6.666;2023-06-19T04:15:45;96116.78;;;24.05;52.71
80851;BME280;70268;50.292;6.666;2023-06-19T04:18:17;96131.97;;;24.16;52.85
80851;BME280;70268;50.292;6.666;2023-06-19T04:20:47;96136.44;;;24.23;52.82
80851;BME280;70268;50.292;6.666;2023-06-19T04:23:15;96130.75;;;24.19;52.81
80851;BME280;70268;50.292;6.666;2023-06-19T04:25:44;96134.03;;;24.08;53.52
80851;BME280;70268;50.292;6.666;2023-06-19T04:28:12;96143.59;;;24.09;53.82
80851;BME280;70268;50.292;6.666;2023-06-19T04:30:41;96135.28;;;24.05;53.50
80851;BME280;70268;50.292;6.666;2023-06-19T04:33:10;96145.84;;;24.05;53.86
80851;BME280;70268;50.292;6.666;2023-06-19T04:35:38;96139.06;;;23.77;54.95
80851;BME280;70268;50.292;6.666;2023-06-19T04:38:09;96139.88;;;23.85;54.26
80851;BME280;70268;50.292;6.666;2023-06-19T04:40:41;96133.16;;;23.82;54.65
80851;BME280;70268;50.292;6.666;2023-06-19T04:43:10;96133.38;;;23.80;55.11
80851;BME280;70268;50.292;6.666;2023-06-19T04:45:40;96146.53;;;23.87;54.49
80851;BME280;70268;50.292;6.666;2023-06-19T04:48:09;96138.81;;;23.86;54.83
80851;BME280;70268;50.292;6.666;2023-06-19T04:50:38;96122.97;;;23.86;55.09
80851;BME280;70268;50.292;6.666;2023-06-19T04:53:09;96133.47;;;23.99;54.68
80851;BME280;70268;50.292;6.666;2023-06-19T04:55:39;96121.06;;;23.99;54.49
80851;BME280;70268;50.292;6.666;2023-06-19T04:58:07;96129.72;;;23.81;54.72
80851;BME280;70268;50.292;6.666;2023-06-19T05:00:36;96132.38;;;23.81;55.21
80851;BME280;70268;50.292;6.666;2023-06-19T05:03:04;96133.34;;;23.87;54.89
80851;BME280;70268;50.292;6.666;2023-06-19T05:05:34;96133.94;;;23.89;54.60
80851;BME280;70268;50.292;6.666;2023-06-19T05:08:02;96141.72;;;23.77;55.31
80851;BME280;70268;50.292;6.666;2023-06-19T05:10:32;96137.66;;;23.81;54.84
80851;BME280;70268;50.292;6.666;2023-06-19T05:13:01;96138.31;;;23.57;55.19
80851;BME280;70268;50.292;6.666;2023-06-19T05:15:30;96154.53;;;23.67;55.54
80851;BME280;70268;50.292;6.666;2023-06-19T05:17:59;96148.06;;;23.63;54.98
80851;BME280;70268;50.292;6.666;2023-06-19T05:20:27;96157.75;;;23.76;54.89
80851;BME280;70268;50.292;6.666;2023-06-19T05:22:56;96156.56;;;23.72;54.59
80851;BME280;70268;50.292;6.666;2023-06-19T05:25:25;96150.88;;;23.68;54.47
80851;BME280;70268;50.292;6.666;2023-06-19T05:27:56;96145.81;;;23.67;54.42
80851;BME280;70268;50.292;6.666;2023-06-19T05:30:24;96145.19;;;23.64;54.42
80851;BME280;70268;50.292;6.666;2023-06-19T05:32:53;96156.16;;;23.68;54.13
80851;BME280;70268;50.292;6.666;2023-06-19T05:35:22;96157.81;;;23.62;54.16
80851;BME280;70268;50.292;6.666;2023-06-19T05:37:50;96146.41;;;23.69;53.87
80851;BME280;70268;50.292;6.666;2023-06-19T05:40:19;96158.41;;;23.64;53.79
80851;BME280;70268;50.292;6.666;2023-06-19T05:42:48;96153.69;;;23.73;53.74
80851;BME280;70268;50.292;6.666;2023-06-19T05:45:18;96166.72;;;23.68;53.87
80851;BME280;70268;50.292;6.666;2023-06-19T05:47:46;96170.38;;;23.67;53.88
80851;BME280;70268;50.292;6.666;2023-06-19T05:50:15;96175.69;;;23.60;53.96
80851;BME280;70268;50.292;6.666;2023-06-19T05:55:11;96160.06;;;23.52;54.04
80851;BME280;70268;50.292;6.666;2023-06-19T05:57:40;96173.47;;;23.51;54.09
80851;BME280;70268;50.292;6.666;2023-06-19T06:00:10;96169.16;;;23.70;53.51
80851;BME280;70268;50.292;6.666;2023-06-19T06:02:43;96171.56;;;23.78;53.69
80851;BME280;70268;50.292;6.666;2023-06-19T06:05:11;96173.34;;;23.91;53.27
80851;BME280;70268;50.292;6.666;2023-06-19T06:07:40;96175.16;;;23.90;53.23
80851;BME280;70268;50.292;6.666;2023-06-19T06:10:09;96183.88;;;23.97;52.60
80851;BME280;70268;50.292;6.666;2023-06-19T06:12:38;96182.66;;;23.93;52.93
80851;BME280;70268;50.292;6.666;2023-06-19T06:15:07;96190.56;;;23.93;53.01
80851;BME280;70268;50.292;6.666;2023-06-19T06:17:36;96195.66;;;23.95;52.79
80851;BME280;70268;50.292;6.666;2023-06-19T06:20:07;96198.94;;;23.84;52.75
80851;BME280;70268;50.292;6.666;2023-06-19T06:22:39;96203.34;;;23.96;52.49
80851;BME280;70268;50.292;6.666;2023-06-19T06:25:09;96206.84;;;23.97;52.86
80851;BME280;70268;50.292;6.666;2023-06-19T06:27:40;96207.63;;;23.97;52.51
80851;BME280;70268;50.292;6.666;2023-06-19T06:30:10;96214.75;;;23.90;52.77
80851;BME280;70268;50.292;6.666;2023-06-19T06:32:40;96208.69;;;23.90;52.70
80851;BME280;70268;50.292;6.666;2023-06-19T06:35:10;96216.19;;;23.93;52.60
80851;BME280;70268;50.292;6.666;2023-06-19T06:37:38;96216.78;;;23.95;52.63
80851;BME280;70268;50.292;6.666;2023-06-19T06:40:08;96215.56;;;23.97;52.71
80851;BME280;70268;50.292;6.666;2023-06-19T06:42:38;96229.34;;;24.06;52.21
80851;BME280;70268;50.292;6.666;2023-06-19T06:45:07;96228.94;;;24.03;51.97
80851;BME280;70268;50.292;6.666;2023-06-19T06:47:36;96228.13;;;24.02;52.11
80851;BME280;70268;50.292;6.666;2023-06-19T06:50:06;96229.97;;;24.02;51.96
80851;BME280;70268;50.292;6.666;2023-06-19T06:52:36;96230.97;;;24.01;51.99
80851;BME280;70268;50.292;6.666;2023-06-19T06:55:07;96230.19;;;24.00;52.10
80851;BME280;70268;50.292;6.666;2023-06-19T06:57:35;96221.22;;;24.01;51.93
80851;BME280;70268;50.292;6.666;2023-06-19T07:00:05;96223.25;;;23.99;51.96
80851;BME280;70268;50.292;6.666;2023-06-19T07:02:35;96235.25;;;24.02;51.76
80851;BME280;70268;50.292;6.666;2023-06-19T07:05:07;96238.28;;;24.05;51.32
80851;BME280;70268;50.292;6.666;2023-06-19T07:07:37;96241.34;;;24.02;51.44
80851;BME280;70268;50.292;6.666;2023-06-19T07:10:06;96241.31;;;24.09;50.98
80851;BME280;70268;50.292;6.666;2023-06-19T07:12:35;96241.31;;;24.09;51.15
80851;BME280;70268;50.292;6.666;2023-06-19T07:15:04;96242.91;;;24.10;50.85
80851;BME280;70268;50.292;6.666;2023-06-19T07:17:32;96241.28;;;24.15;50.61
80851;BME280;70268;50.292;6.666;2023-06-19T07:20:01;96237.22;;;24.13;51.05
80851;BME280;70268;50.292;6.666;2023-06-19T07:22:30;96240.47;;;24.15;50.85
80851;BME280;70268;50.292;6.666;2023-06-19T07:25:00;96240.28;;;24.16;50.86
80851;BME280;70268;50.292;6.666;2023-06-19T07:27:29;96236.84;;;24.03;51.15
80851;BME280;70268;50.292;6.666;2023-06-19T07:29:57;96238.88;;;24.07;50.96
80851;BME280;70268;50.292;6.666;2023-06-19T07:32:26;96249.03;;;24.10;50.78
80851;BME280;70268;50.292;6.666;2023-06-19T07:34:55;96251.28;;;24.07;50.94
80851;BME280;70268;50.292;6.666;2023-06-19T07:37:23;96251.88;;;24.09;50.17
80851;BME280;70268;50.292;6.666;2023-06-19T07:39:52;96249.88;;;24.04;50.40
80851;BME280;70268;50.292;6.666;2023-06-19T07:42:22;96256.97;;;24.04;50.76
80851;BME280;70268;50.292;6.666;2023-06-19T07:44:52;96248.63;;;24.07;50.61
80851;BME280;70268;50.292;6.666;2023-06-19T07:47:20;96245.41;;;24.05;50.59
80851;BME280;70268;50.292;6.666;2023-06-19T07:49:49;96254.75;;;24.07;50.47
80851;BME280;70268;50.292;6.666;2023-06-19T07:52:18;96247.41;;;24.09;50.50
80851;BME280;70268;50.292;6.666;2023-06-19T07:54:51;96258.97;;;24.08;50.31
80851;BME280;70268;50.292;6.666;2023-06-19T07:57:22;96250.69;;;24.05;50.45
80851;BME280;70268;50.292;6.666;2023-06-19T07:59:52;96261.03;;;24.06;50.52
80851;BME280;70268;50.292;6.666;2023-06-19T08:02:21;96257.16;;;24.09;50.63
80851;BME280;70268;50.292;6.666;2023-06-19T08:04:50;96256.75;;;24.12;50.52
80851;BME280;70268;50.292;6.666;2023-06-19T08:07:18;96261.19;;;24.11;50.31
80851;BME280;70268;50.292;6.666;2023-06-19T08:09:47;96259.19;;;24.13;50.38
80851;BME280;70268;50.292;6.666;2023-06-19T08:12:27;96261.63;;;24.15;50.43
80851;BME280;70268;50.292;6.666;2023-06-19T08:14:56;96264.03;;;24.16;50.16
80851;BME280;70268;50.292;6.666;2023-06-19T08:17:25;96254.06;;;24.19;50.19
80851;BME280;70268;50.292;6.666;2023-06-19T08:19:53;96257.72;;;24.17;50.03
80851;BME280;70268;50.292;6.666;2023-06-19T08:22:22;96265.66;;;24.17;50.38
80851;BME280;70268;50.292;6.666;2023-06-19T08:24:52;96269.34;;;24.16;50.22
80851;BME280;70268;50.292;6.666;2023-06-19T08:27:20;96262.41;;;24.15;50.16
80851;BME280;70268;50.292;6.666;2023-06-19T08:29:50;96270.75;;;24.19;49.92
80851;BME280;70268;50.292;6.666;2023-06-19T08:32:19;96265.25;;;24.21;49.74
80851;BME280;70268;50.292;6.666;2023-06-19T08:34:47;96270.53;;;24.21;49.98
80851;BME280;70268;50.292;6.666;2023-06-19T08:37:17;96269.91;;;24.19;49.86
80851;BME280;70268;50.292;6.666;2023-06-19T08:39:46;96273.56;;;24.17;49.77
80851;BME280;70268;50.292;6.666;2023-06-19T08:42:14;96267.09;;;24.20;49.89
80851;BME280;70268;50.292;6.666;2023-06-19T08:44:43;96259.19;;;24.20;49.91
80851;BME280;70268;50.292;6.666;2023-06-19T08:47:13;96268.72;;;24.21;49.73
80851;BME280;70268;50.292;6.666;2023-06-19T08:49:42;96267.91;;;24.21;49.97
80851;BME280;70268;50.292;6.666;2023-06-19T08:52:10;96270.75;;;24.19;49.94
80851;BME280;70268;50.292;6.666;2023-06-19T08:54:39;96279.28;;;24.21;50.01
80851;BME280;70268;50.292;6.666;2023-06-19T08:57:11;96269.91;;;24.19;50.01
80851;BME280;70268;50.292;6.666;2023-06-19T08:59:41;96271.38;;;24.21;49.98
80851;BME280;70268;50.292;6.666;2023-06-19T09:02:17;96277.25;;;24.23;49.87
80851;BME280;70268;50.292;6.666;2023-06-19T09:04:46;96279.69;;;24.25;49.87
80851;BME280;70268;50.292;6.666;2023-06-19T09:07:14;96283.75;;;24.27;49.78
80851;BME280;70268;50.292;6.666;2023-06-19T09:09:45;96283.31;;;24.30;50.02
80851;BME280;70268;50.292;6.666;2023-06-19T09:12:14;96279.25;;;24.34;50.03
80851;BME280;70268;50.292;6.666;2023-06-19T09:14:54;96283.69;;;24.41;49.77
80851;BME280;70268;50.292;6.666;2023-06-19T09:17:24;96282.84;;;24.40;50.12
80851;BME280;70268;50.292;6.666;2023-06-19T09:19:56;96290.16;;;24.45;49.96
80851;BME280;70268;50.292;6.666;2023-06-19T09:22:25;96283.06;;;24.45;50.02
80851;BME280;70268;50.292;6.666;2023-06-19T09:24:53;96283.44;;;24.49;50.05
80851;BME280;70268;50.292;6.666;2023-06-19T09:27:22;96281.59;;;24.49;50.39
80851;BME280;70268;50.292;6.666;2023-06-19T09:29:51;96283.38;;;24.56;49.96
80851;BME280;70268;50.292;6.666;2023-06-19T09:32:20;96294.59;;;24.58;50.03
80851;BME280;70268;50.292;6.666;2023-06-19T09:34:53;96288.66;;;24.62;49.87
80851;BME280;70268;50.292;6.666;2023-06-19T09:37:23;96295.75;;;24.62;49.58
80851;BME280;70268;50.292;6.666;2023-06-19T09:39:53;96298.59;;;24.67;49.69
80851;BME280;70268;50.292;6.666;2023-06-19T09:42:31;96292.09;;;24.69;49.92
80851;BME280;70268;50.292;6.666;2023-06-19T09:45:01;96288.41;;;24.70;50.18
80851;BME280;70268;50.292;6.666;2023-06-19T09:47:33;96287.38;;;24.72;50.00
80851;BME280;70268;50.292;6.666;2023-06-19T09:50:07;96286.16;;;24.74;49.83
80851;BME280;70268;50.292;6.666;2023-06-19T09:52:35;96282.03;;;24.78;49.61
80851;BME280;70268;50.292;6.666;2023-06-19T09:55:07;96282.47;;;24.75;49.80
80851;BME280;70268;50.292;6.666;2023-06-19T09:57:37;96280.22;;;24.79;49.66
80851;BME280;70268;50.292;6.666;2023-06-19T10:00:08;96285.09;;;24.82;49.66
80851;BME280;70268;50.292;6.666;2023-06-19T10:02:41;96276.13;;;24.83;49.42
80851;BME280;70268;50.292;6.666;2023-06-19T10:05:11;96283.25;;;24.82;49.15
80851;BME280;70268;50.292;6.666;2023-06-19T10:07:43;96275.91;;;24.84;49.40
80851;BME280;70268;50.292;6.666;2023-06-19T10:10:22;96283.19;;;24.89;49.31
80851;BME280;70268;50.292;6.666;2023-06-19T10:12:53;96273.88;;;24.86;49.35
80851;BME280;70268;50.292;6.666;2023-06-19T10:15:24;96266.53;;;24.88;49.08
80851;BME280;70268;50.292;6.666;2023-06-19T10:17:59;96271.81;;;24.88;48.78
80851;BME280;70268;50.292;6.666;2023-06-19T10:20:31;96266.53;;;24.88;49.11
80851;BME280;70268;50.292;6.666;2023-06-19T10:23:03;96269.97;;;24.89;49.49
80851;BME280;70268;50.292;6.666;2023-06-19T10:25:33;96268.94;;;24.90;49.16
80851;BME280;70268;50.292;6.666;2023-06-19T10:28:03;96265.28;;;24.91;49.08
80851;BME280;70268;50.292;6.666;2023-06-19T10:30:33;96267.09;;;24.91;49.17
80851;BME280;70268;50.292;6.666;2023-06-19T10:33:02;96272.19;;;24.92;48.73
80851;BME280;70268;50.292;6.666;2023-06-19T10:35:39;96268.75;;;24.92;48.77
80851;BME280;70268;50.292;6.666;2023-06-19T10:38:08;96274.25;;;24.90;49.05
80851;BME280;70268;50.292;6.666;2023-06-19T10:40:38;96261.38;;;24.94;49.22
80851;BME280;70268;50.292;6.666;2023-06-19T10:43:06;96262.41;;;24.99;50.05
80851;BME280;70268;50.292;6.666;2023-06-19T10:45:35;96269.47;;;25.05;50.58
80851;BME280;70268;50.292;6.666;2023-06-19T10:48:04;96278.81;;;25.08;50.34
80851;BME280;70268;50.292;6.666;2023-06-19T10:50:41;96270.09;;;25.08;50.75
80851;BME280;70268;50.292;6.666;2023-06-19T10:53:10;96267.03;;;25.11;51.13
80851;BME280;70268;50.292;6.666;2023-06-19T10:55:39;96266.19;;;25.10;50.91
80851;BME280;70268;50.292;6.666;2023-06-19T10:58:07;96265.19;;;25.11;51.30
80851;BME280;70268;50.292;6.666;2023-06-19T11:00:36;96266.19;;;25.10;51.51
80851;BME280;70268;50.292;6.666;2023-06-19T11:03:05;96260.91;;;25.10;51.58
80851;BME280;70268;50.292;6.666;2023-06-19T11:05:33;96265.97;;;25.12;51.61
80851;BME280;70268;50.292;6.666;2023-06-19T11:08:03;96270.03;;;25.14;51.79
80851;BME280;70268;50.292;6.666;2023-06-19T11:10:32;96263.50;;;25.17;51.61
80851;BME280;70268;50.292;6.666;2023-06-19T11:13:01;96259.81;;;25.18;51.74
80851;BME280;70268;50.292;6.666;2023-06-19T11:15:30;96262.84;;;25.21;51.61
80851;BME280;70268;50.292;6.666;2023-06-19T11:18:00;96255.72;;;25.22;51.71
80851;BME280;70268;50.292;6.666;2023-06-19T11:20:29;96268.50;;;25.25;51.85
80851;BME280;70268;50.292;6.666;2023-06-19T11:22:59;96256.09;;;25.26;51.73
80851;BME280;70268;50.292;6.666;2023-06-19T11:25:36;96259.34;;;25.28;51.71
80851;BME280;70268;50.292;6.666;2023-06-19T11:28:11;96257.50;;;25.28;52.23
80851;BME280;70268;50.292;6.666;2023-06-19T11:30:41;96253.41;;;25.32;52.06
80851;BME280;70268;50.292;6.666;2023-06-19T11:33:18;96247.09;;;25.33;52.11
80851;BME280;70268;50.292;6.666;2023-06-19T11:35:50;96251.56;;;25.33;52.19
80851;BME280;70268;50.292;6.666;2023-06-19T11:38:23;96246.88;;;25.35;52.17
80851;BME280;70268;50.292;6.666;2023-06-19T11:40:56;96245.81;;;25.36;52.53
80851;BME280;70268;50.292;6.666;2023-06-19T11:43:25;96254.19;;;25.33;52.17
80851;BME280;70268;50.292;6.666;2023-06-19T11:46:01;96252.53;;;25.38;52.45
80851;BME280;70268;50.292;6.666;2023-06-19T11:48:31;96251.13;;;25.36;52.21
80851;BME280;70268;50.292;6.666;2023-06-19T11:51:00;96256.03;;;25.32;52.59
80851;BME280;70268;50.292;6.666;2023-06-19T11:53:29;96252.59;;;25.32;52.49
80851;BME280;70268;50.292;6.666;2023-06-19T11:55:59;96247.53;;;25.30;52.76
80851;BME280;70268;50.292;6.666;2023-06-19T11:58:27;96252.59;;;25.32;52.67
80851;BME280;70268;50.292;6.666;2023-06-19T12:00:56;96252.97;;;25.35;52.71
80851;BME280;70268;50.292;6.666;2023-06-19T12:03:25;96247.09;;;25.33;52.70
80851;BME280;70268;50.292;6.666;2023-06-19T12:05:54;96246.47;;;25.31;52.83
80851;BME280;70268;50.292;6.666;2023-06-19T12:08:23;96245.03;;;25.35;52.37
80851;BME280;70268;50.292;6.666;2023-06-19T12:10:51;96242.44;;;25.29;52.61
80851;BME280;70268;50.292;6.666;2023-06-19T12:13:21;96237.88;;;25.36;52.29
80851;BME280;70268;50.292;6.666;2023-06-19T12:15:50;96241.94;;;25.38;52.10
80851;BME280;70268;50.292;6.666;2023-06-19T12:18:18;96244.66;;;25.32;51.81
80851;BME280;70268;50.292;6.666;2023-06-19T12:20:47;96243.63;;;25.33;52.02
80851;BME280;70268;50.292;6.666;2023-06-19T12:23:16;96256.19;;;25.37;52.10
80851;BME280;70268;50.292;6.666;2023-06-19T12:25:44;96248.88;;;25.39;51.67
80851;BME280;70268;50.292;6.666;2023-06-19T12:28:13;96241.16;;;25.38;51.63
80851;BME280;70268;50.292;6.666;2023-06-19T12:30:47;96242.53;;;25.40;51.79
80851;BME280;70268;50.292;6.666;2023-06-19T12:33:18;96247.88;;;25.34;51.79
80851;BME280;70268;50.292;6.666;2023-06-19T12:35:47;96241.94;;;25.38;51.72
80851;BME280;70268;50.292;6.666;2023-06-19T12:38:16;96245.03;;;25.35;51.63
80851;BME280;70268;50.292;6.666;2023-06-19T12:40:45;96240.59;;;25.29;51.77
80851;BME280;70268;50.292;6.666;2023-06-19T12:43:14;96242.22;;;25.30;51.25
80851;BME280;70268;50.292;6.666;2023-06-19T12:45:42;96234.28;;;25.30;51.32
80851;BME280;70268;50.292;6.666;2023-06-19T12:48:12;96238.31;;;25.33;51.46
80851;BME280;70268;50.292;6.666;2023-06-19T12:50:41;96230.34;;;25.39;51.46
80851;BME280;70268;50.292;6.666;2023-06-19T12:53:09;96226.22;;;25.44;51.42
80851;BME280;70268;50.292;6.666;2023-06-19T12:55:38;96228.81;;;25.50;51.05
80851;BME280;70268;50.292;6.666;2023-06-19T12:58:27;96234.81;;;25.57;50.71
80851;BME280;70268;50.292;6.666;2023-06-19T13:00:56;96228.91;;;25.62;50.56
80851;BME280;70268;50.292;6.666;2023-06-19T13:03:25;96226.03;;;25.64;50.65
80851;BME280;70268;50.292;6.666;2023-06-19T13:05:54;96227.84;;;25.63;50.45
80851;BME280;70268;50.292;6.666;2023-06-19T13:08:23;96221.53;;;25.64;50.28
80851;BME280;70268;50.292;6.666;2023-06-19T13:10:51;96213.59;;;25.64;50.33
80851;BME280;70268;50.292;6.666;2023-06-19T13:13:20;96219.47;;;25.66;50.20
80851;BME280;70268;50.292;6.666;2023-06-19T13:15:49;96217.66;;;25.67;50.19
80851;BME280;70268;50.292;6.666;2023-06-19T13:18:17;96221.69;;;25.69;49.94